Airfield :
LOGIN :

Register | Disclaimer

   EN    FR    IT 

 










Legend :    VFR   Marginal VFR   IFR   Intensive IFR   Very Intensive IFR
Visi :
Ceiling :
>= 8 km
>= 3000ft
5 to 8 km
1000 to 3000 ft
1500m to 5 km
500 to 1000 ft
800 to 1500m
200 to 500 ft
< 800m
< 200 ft
Symbols :   Thunderstorms  Fog  Heavy snow  Heavy precipitations  Wind > 20 kt
SIGMETs :     Misc.  Thunderstorms  Icing  Turbulence  Mountain Waves  Volcanic Ashes






- Airport Elevation : 465 ft
- IATA code : LEJ


EDDP - Leipzig Halle

CURRENT METAR :
  • 211720Z AUTO 09011KT CAVOK 20/15 Q1006 NOSIG

EXPIRED METARs :
  • 211650Z AUTO 10013KT 9999 -SHRA FEW///TCU 20/14 Q1006 NOSIG
  • 211620Z AUTO 09013KT CAVOK 20/14 Q1006 NOSIG
  • 211550Z AUTO 10013KT 9999 -SHRA FEW///TCU 20/13 Q1006 NOSIG
  • 211520Z AUTO 12016KT 9999 -SHRA FEW///TCU 21/13 Q1006 NOSIG
  • 211450Z AUTO 13016KT 9999 -SHRA FEW///TCU 20/15 Q1006 RESHRA NOSIG
  • 211420Z AUTO 12023KT 070V150 9999 SHRA FEW///CB 23/13 Q1006 TEMPO 09020G30KT 4000 TSRA BKN030CB
  • 211350Z AUTO 08016KT CAVOK 25/12 Q1006 TEMPO 09020G30KT SHRA BKN040CB
  • 211320Z AUTO 08013KT CAVOK 25/12 Q1006 TEMPO 09015G25KT

TAF TAF EDDP
Valid from the 21 at 18:00 until the 22 at 18:00 UTC


211700Z 2118/2218 10012KT 9999 BKN035
TEMPO 2119/2204 4000 SHRA BKN020CB
PROB30
TEMPO 2119/2201 10020G30KT 2000 TSRA BKN014CB
BECMG 2201/2204 24007KT
TEMPO 2204/2209 4500 -RA BKN009



MET'MAP, your aeronautical weather chart ! - Copyright ORBIFLY December 2007 - Disclaimer

ORBIFLY MET'MAP TEAM :

Programming & Development : Alexandra Zaïnal
Original concept : Baudouin d'Aumeries
Technical & hardware support : Manuel Goepfert
Assistance : Marc-Olivier Méhu




SOURCES & CREDITS :

   NOAA